Time;durP1;ratioP1;P1;durP2;ratioP2;P2;SDS_P1;SDS_P2;PMS_P1;PMS_P2;Temp;Humidity;BMP_temperature;BMP_pressure;BME280_temperature;BME280_humidity;BME280_pressure;Samples;Min_cycle;Max_cycle;Signal;HPM_P1;HPM_P2
2023/08/24 00:01:16;;;;;;;6.05;3.00;;;17.40;99.90;;;;;;5030371;28;20063;-63
2023/08/24 00:03:45;;;;;;;5.97;2.80;;;17.40;99.90;;;;;;5030770;28;20026;-62
2023/08/24 00:06:11;;;;;;;5.30;2.83;;;17.40;99.90;;;;;;5031191;28;20117;-63
2023/08/24 00:08:37;;;;;;;5.30;2.78;;;17.40;99.90;;;;;;5011536;28;20128;-62
2023/08/24 00:11:03;;;;;;;4.43;2.70;;;17.30;99.90;;;;;;5034659;28;20037;-63
2023/08/24 00:13:28;;;;;;;4.70;2.80;;;17.30;99.90;;;;;;5014143;28;20041;-63
2023/08/24 00:15:54;;;;;;;4.03;2.63;;;17.30;99.90;;;;;;5039149;28;20459;-63
2023/08/24 00:18:21;;;;;;;5.97;2.83;;;17.20;99.90;;;;;;5017905;28;20454;-63
2023/08/24 00:20:48;;;;;;;5.25;3.05;;;17.20;99.90;;;;;;5026856;28;20117;-63
2023/08/24 00:23:13;;;;;;;4.97;3.03;;;17.20;99.90;;;;;;5022904;28;20042;-63
2023/08/24 00:25:40;;;;;;;5.97;3.42;;;17.10;99.90;;;;;;5035825;28;20034;-62
2023/08/24 00:28:06;;;;;;;5.70;3.33;;;17.10;99.90;;;;;;5042904;28;20467;-64
2023/08/24 00:30:32;;;;;;;5.43;3.08;;;17.10;99.90;;;;;;5028835;28;20132;-63
2023/08/24 00:32:58;;;;;;;5.80;3.20;;;17.10;99.90;;;;;;5032706;28;20084;-62
2023/08/24 00:35:23;;;;;;;5.18;2.70;;;17.10;99.90;;;;;;5011317;28;20045;-63
2023/08/24 00:37:50;;;;;;;4.22;2.35;;;17.10;99.90;;;;;;5015159;28;20037;-63
2023/08/24 00:40:16;;;;;;;4.65;2.75;;;17.10;99.90;;;;;;5036236;28;20042;-64
2023/08/24 00:42:43;;;;;;;4.53;2.90;;;17.10;99.90;;;;;;5011990;28;20037;-63
2023/08/24 00:45:11;;;;;;;4.63;3.40;;;17.10;99.90;;;;;;5031832;28;20033;-63
2023/08/24 00:47:45;;;;;;;6.10;3.22;;;17.10;99.90;;;;;;5038723;28;20839;-63
2023/08/24 00:50:11;;;;;;;5.68;3.35;;;17.00;99.90;;;;;;5019601;28;20064;-62
2023/08/24 00:52:40;;;;;;;5.38;3.40;;;17.10;99.90;;;;;;5027373;23;20049;-63
2023/08/24 00:55:07;;;;;;;6.65;3.65;;;17.10;99.90;;;;;;4998995;28;20084;-63
2023/08/24 00:57:33;;;;;;;7.75;3.50;;;17.10;99.90;;;;;;5002880;28;20045;-63
2023/08/24 01:00:05;;;;;;;9.60;3.75;;;17.10;99.90;;;;;;4985313;28;20058;-66
2023/08/24 01:02:31;;;;;;;;;;;17.10;99.90;;;;;;5003214;28;20496;-66
2023/08/24 01:04:58;;;;;;;8.02;4.15;;;17.10;99.90;;;;;;5001334;28;19918;-63
2023/08/24 01:07:24;;;;;;;8.25;4.45;;;17.10;99.90;;;;;;5001462;28;20130;-63
2023/08/24 01:09:50;;;;;;;11.80;5.00;;;17.20;99.90;;;;;;4992614;28;20041;-63
2023/08/24 01:12:54;;;;;;;7.70;4.32;;;17.20;99.90;;;;;;5004300;28;20042;-64
2023/08/24 01:15:37;;;;;;;6.30;4.78;;;17.30;99.90;;;;;;4990589;28;20575;-64
2023/08/24 01:18:13;;;;;;;6.68;4.40;;;17.30;99.90;;;;;;4994625;28;20042;-64
2023/08/24 01:20:40;;;;;;;8.73;4.55;;;17.30;99.90;;;;;;4993406;28;20062;-64
2023/08/24 01:23:27;;;;;;;10.38;5.07;;;17.30;99.90;;;;;;4992356;28;20766;-64
2023/08/24 01:26:08;;;;;;;6.88;4.65;;;17.40;99.90;;;;;;4993800;28;20042;-64
2023/08/24 01:28:34;;;;;;;11.17;4.90;;;17.40;99.90;;;;;;4998560;28;20049;-65
2023/08/24 01:31:00;;;;;;;6.60;4.65;;;17.40;99.90;;;;;;5001002;28;20209;-64
2023/08/24 01:33:26;;;;;;;8.13;5.10;;;17.50;99.90;;;;;;4991337;28;20500;-64
2023/08/24 01:35:51;;;;;;;7.63;4.70;;;17.50;99.90;;;;;;4993322;28;20075;-63
2023/08/24 01:38:17;;;;;;;10.15;4.90;;;17.50;99.90;;;;;;4997271;28;20404;-64
2023/08/24 01:40:51;;;;;;;8.63;4.80;;;17.50;99.90;;;;;;4996743;28;20450;-64
2023/08/24 01:43:20;;;;;;;10.02;4.53;;;17.50;99.90;;;;;;4986683;28;20162;-64
2023/08/24 01:45:47;;;;;;;8.48;5.35;;;17.50;99.90;;;;;;4994171;28;20117;-64
2023/08/24 01:48:13;;;;;;;8.05;4.70;;;17.50;99.90;;;;;;5000556;28;20064;-65
2023/08/24 01:50:39;;;;;;;10.82;4.68;;;17.60;99.90;;;;;;4995506;28;20046;-64
2023/08/24 01:53:05;;;;;;;7.07;4.18;;;17.60;99.90;;;;;;4995437;28;20038;-63
2023/08/24 01:55:31;;;;;;;9.68;4.20;;;17.60;99.90;;;;;;4982929;28;20031;-64
2023/08/24 01:57:57;;;;;;;9.30;4.60;;;17.60;99.90;;;;;;4994609;28;20455;-66
2023/08/24 02:00:23;;;;;;;10.43;4.63;;;17.60;99.90;;;;;;4992913;28;20524;-64
2023/08/24 02:02:49;;;;;;;11.15;5.03;;;17.60;99.90;;;;;;5008916;28;20118;-67
2023/08/24 02:05:14;;;;;;;6.55;4.40;;;17.60;99.90;;;;;;4993164;28;20073;-64
2023/08/24 02:07:40;;;;;;;8.68;4.70;;;17.60;99.90;;;;;;4996835;28;20048;-64
2023/08/24 02:10:06;;;;;;;10.95;4.95;;;17.60;99.90;;;;;;4994733;28;20064;-64
2023/08/24 02:12:32;;;;;;;10.20;4.80;;;17.60;99.90;;;;;;4991653;28;20096;-64
2023/08/24 02:14:58;;;;;;;7.97;5.03;;;17.60;99.90;;;;;;4989470;28;20092;-64
2023/08/24 02:17:23;;;;;;;7.45;4.50;;;17.60;99.90;;;;;;4993532;28;20038;-68
2023/08/24 02:19:50;;;;;;;8.70;4.75;;;17.60;99.90;;;;;;5002826;28;20033;-64
2023/08/24 02:22:15;;;;;;;7.07;4.30;;;17.60;99.90;;;;;;4989905;28;20125;-65
2023/08/24 02:24:41;;;;;;;7.28;4.47;;;17.60;99.90;;;;;;4999863;28;20069;-64
2023/08/24 02:27:07;;;;;;;10.88;4.65;;;17.60;99.90;;;;;;4993010;28;20038;-63
2023/08/24 02:29:32;;;;;;;10.15;4.93;;;17.60;99.90;;;;;;5006792;28;20041;-64
2023/08/24 02:31:58;;;;;;;12.77;4.82;;;17.60;99.90;;;;;;4995328;28;20038;-64
2023/08/24 02:34:24;;;;;;;9.02;5.28;;;17.60;99.90;;;;;;4991643;28;20042;-66
2023/08/24 02:36:49;;;;;;;8.98;4.95;;;17.60;99.90;;;;;;4995201;28;20046;-65
2023/08/24 02:39:16;;;;;;;10.18;4.72;;;17.60;99.90;;;;;;4998816;28;20403;-64
2023/08/24 02:41:41;;;;;;;7.57;4.47;;;17.60;99.90;;;;;;5000853;28;20046;-64
2023/08/24 02:44:07;;;;;;;9.82;4.53;;;17.60;99.90;;;;;;5008187;28;20443;-66
2023/08/24 02:46:32;;;;;;;9.32;4.95;;;17.60;99.90;;;;;;4982066;28;20416;-64
2023/08/24 02:48:58;;;;;;;8.73;5.00;;;17.60;99.90;;;;;;4981937;28;20153;-65
2023/08/24 02:51:24;;;;;;;10.82;5.53;;;17.50;99.90;;;;;;4996831;28;20046;-64
2023/08/24 02:53:50;;;;;;;7.90;4.75;;;17.60;99.90;;;;;;4998053;28;20160;-64
2023/08/24 02:56:16;;;;;;;10.25;5.00;;;17.50;99.90;;;;;;4981835;28;20041;-64
2023/08/24 02:58:41;;;;;;;10.32;5.45;;;17.50;99.90;;;;;;4990800;28;20038;-64
2023/08/24 03:01:07;;;;;;;10.45;5.40;;;17.50;99.90;;;;;;4988142;28;20038;-64
2023/08/24 03:03:36;;;;;;;12.98;5.15;;;17.50;99.90;;;;;;4996830;28;20042;-64
2023/08/24 03:06:04;;;;;;;8.27;4.82;;;17.50;99.90;;;;;;4988298;28;20030;-64
2023/08/24 03:08:31;;;;;;;9.15;5.43;;;17.50;99.90;;;;;;4989663;28;20133;-64
2023/08/24 03:10:58;;;;;;;8.02;4.90;;;17.50;99.90;;;;;;5007423;28;20037;-65
2023/08/24 03:13:24;;;;;;;10.35;5.80;;;17.50;99.90;;;;;;4988256;28;20377;-63
2023/08/24 03:15:49;;;;;;;7.85;5.13;;;17.50;99.90;;;;;;5001618;28;20037;-64
2023/08/24 03:18:16;;;;;;;10.30;5.78;;;17.50;99.90;;;;;;4990408;28;20069;-65
2023/08/24 03:20:43;;;;;;;9.02;5.13;;;17.40;99.90;;;;;;4990190;28;20448;-64
2023/08/24 03:23:08;;;;;;;10.38;5.80;;;17.40;99.90;;;;;;4988986;28;20031;-66
2023/08/24 03:25:39;;;;;;;10.70;5.55;;;17.50;99.90;;;;;;4990277;28;20042;-64
2023/08/24 03:28:05;;;;;;;10.90;5.47;;;17.40;99.90;;;;;;5001409;28;20065;-67
2023/08/24 03:30:31;;;;;;;12.50;5.70;;;17.40;99.90;;;;;;4985277;28;20050;-64
2023/08/24 03:32:57;;;;;;;10.13;6.32;;;17.40;99.90;;;;;;4992715;28;20030;-63
2023/08/24 03:35:22;;;;;;;10.55;6.00;;;17.40;99.90;;;;;;4995411;28;20124;-64
2023/08/24 03:37:48;;;;;;;9.00;5.68;;;17.40;99.90;;;;;;4998499;28;20072;-64
2023/08/24 03:40:14;;;;;;;10.07;5.72;;;17.40;99.90;;;;;;4994092;28;20041;-66
2023/08/24 03:42:39;;;;;;;8.95;5.82;;;17.30;99.90;;;;;;4990861;28;20042;-66
2023/08/24 03:45:06;;;;;;;8.77;6.05;;;17.30;99.90;;;;;;4988417;28;20080;-64
2023/08/24 03:47:31;;;;;;;10.95;5.95;;;17.30;99.90;;;;;;4991149;28;20189;-63
2023/08/24 03:49:57;;;;;;;9.07;5.93;;;17.30;99.90;;;;;;4988252;28;20647;-65
2023/08/24 03:52:23;;;;;;;10.40;5.70;;;17.20;99.90;;;;;;4992696;28;20065;-64
2023/08/24 03:54:48;;;;;;;10.93;6.10;;;17.20;99.90;;;;;;4994462;28;20057;-64
2023/08/24 03:57:15;;;;;;;9.13;6.15;;;17.10;99.90;;;;;;4990454;28;20042;-66
2023/08/24 03:59:41;;;;;;;10.85;6.75;;;17.10;99.90;;;;;;4989844;28;20050;-64
2023/08/24 04:02:06;;;;;;;11.60;6.88;;;17.10;99.90;;;;;;4999325;28;20401;-64
2023/08/24 04:04:32;;;;;;;9.95;6.80;;;17.10;99.90;;;;;;4998477;28;20489;-67
2023/08/24 04:06:58;;;;;;;10.25;6.82;;;17.10;99.90;;;;;;5003943;28;20484;-64
2023/08/24 04:09:24;;;;;;;10.73;7.05;;;17.10;99.90;;;;;;4986975;28;20042;-65
2023/08/24 04:11:49;;;;;;;12.63;7.43;;;17.10;99.90;;;;;;5000763;28;20508;-64
2023/08/24 04:14:15;;;;;;;11.10;7.30;;;17.10;99.90;;;;;;4991624;28;20452;-64
2023/08/24 04:16:41;;;;;;;13.50;7.22;;;17.00;99.90;;;;;;4994769;28;20439;-65
2023/08/24 04:19:08;;;;;;;12.00;7.93;;;17.00;99.90;;;;;;4987176;28;20093;-65
2023/08/24 04:21:34;;;;;;;10.30;7.50;;;17.00;99.90;;;;;;4997324;28;20129;-65
2023/08/24 04:24:00;;;;;;;12.45;7.65;;;17.00;99.90;;;;;;4993899;28;20037;-65
2023/08/24 04:26:25;;;;;;;12.30;7.40;;;17.00;99.90;;;;;;5003864;28;20034;-64
2023/08/24 04:28:51;;;;;;;12.65;7.45;;;17.00;99.90;;;;;;4999467;28;20092;-66
2023/08/24 04:31:17;;;;;;;14.52;7.18;;;16.90;99.90;;;;;;4986990;28;20074;-64
2023/08/24 04:33:42;;;;;;;11.90;7.95;;;16.90;99.90;;;;;;4989784;28;20389;-64
2023/08/24 04:36:08;;;;;;;14.57;7.93;;;16.90;99.90;;;;;;4999639;28;20099;-65
2023/08/24 04:38:34;;;;;;;12.55;7.57;;;16.90;99.90;;;;;;4997627;28;20039;-66
2023/08/24 04:40:59;;;;;;;11.85;7.88;;;16.90;99.90;;;;;;4989753;28;20396;-65
2023/08/24 04:43:25;;;;;;;11.77;7.90;;;16.90;99.90;;;;;;4996823;28;20045;-65
2023/08/24 04:45:54;;;;;;;14.07;8.10;;;16.90;99.90;;;;;;5007914;28;20139;-67
2023/08/24 04:48:22;;;;;;;14.70;8.32;;;16.90;99.90;;;;;;4998321;28;20121;-67
2023/08/24 04:50:49;;;;;;;12.52;8.13;;;16.90;99.90;;;;;;4995915;28;20046;-66
2023/08/24 04:53:16;;;;;;;12.60;7.93;;;16.80;99.90;;;;;;4987501;28;20052;-66
2023/08/24 04:55:42;;;;;;;16.58;8.50;;;16.80;99.90;;;;;;4995141;28;20076;-64
2023/08/24 04:58:09;;;;;;;10.60;7.75;;;16.80;99.90;;;;;;5000868;28;20093;-65
2023/08/24 05:00:36;;;;;;;12.02;7.57;;;16.80;99.90;;;;;;4999665;28;20087;-66
2023/08/24 05:03:02;;;;;;;12.23;7.63;;;16.80;99.90;;;;;;4997847;28;20396;-66
2023/08/24 05:05:32;;;;;;;12.35;7.53;;;16.80;99.90;;;;;;4990555;28;20046;-63
2023/08/24 05:07:59;;;;;;;12.32;7.60;;;16.80;99.90;;;;;;4986454;28;20467;-65
2023/08/24 05:10:25;;;;;;;10.77;7.28;;;16.80;99.90;;;;;;5003103;28;20423;-66
2023/08/24 05:12:51;;;;;;;12.75;7.53;;;16.80;99.90;;;;;;4997760;28;20046;-67
2023/08/24 05:15:17;;;;;;;10.77;7.22;;;16.80;99.90;;;;;;4997878;28;20042;-67
2023/08/24 05:17:43;;;;;;;11.07;7.43;;;16.80;99.90;;;;;;5000543;28;20119;-66
2023/08/24 05:20:10;;;;;;;14.05;7.15;;;16.80;99.90;;;;;;4992888;28;20409;-66
2023/08/24 05:22:36;;;;;;;13.52;8.00;;;16.80;99.90;;;;;;4996695;28;20043;-67
2023/08/24 05:25:02;;;;;;;14.07;7.50;;;16.80;99.90;;;;;;4996426;28;20488;-67
2023/08/24 05:27:28;;;;;;;11.15;7.90;;;16.80;99.90;;;;;;5005610;28;20038;-67
2023/08/24 05:29:54;;;;;;;11.80;6.93;;;16.90;99.90;;;;;;4997740;28;20046;-67
2023/08/24 05:32:19;;;;;;;11.00;7.25;;;16.90;99.90;;;;;;5006939;28;20042;-67
2023/08/24 05:34:45;;;;;;;12.35;7.18;;;16.90;99.90;;;;;;5008287;28;20053;-64
2023/08/24 05:37:11;;;;;;;13.35;6.97;;;16.90;99.90;;;;;;5007208;28;20089;-66
2023/08/24 05:39:38;;;;;;;11.40;6.55;;;16.90;99.90;;;;;;5010974;28;20070;-66
2023/08/24 05:42:04;;;;;;;11.63;7.10;;;17.00;99.90;;;;;;5007840;28;20049;-67
2023/08/24 05:44:30;;;;;;;11.05;6.80;;;17.00;99.90;;;;;;4999702;28;20046;-67
2023/08/24 05:46:55;;;;;;;10.50;6.78;;;17.00;99.90;;;;;;5004292;28;20034;-63
2023/08/24 05:49:21;;;;;;;9.75;6.50;;;17.00;99.90;;;;;;4998281;28;20176;-67
2023/08/24 05:51:49;;;;;;;10.95;7.22;;;17.00;99.90;;;;;;4996833;28;20651;-67
2023/08/24 05:54:18;;;;;;;13.52;6.95;;;17.10;99.90;;;;;;5005000;28;20524;-64
2023/08/24 05:56:46;;;;;;;11.23;7.40;;;17.10;99.90;;;;;;5010837;28;20065;-66
2023/08/24 05:59:13;;;;;;;10.38;7.00;;;17.10;99.90;;;;;;5004981;28;20088;-66
2023/08/24 06:01:39;;;;;;;10.63;6.47;;;17.10;99.90;;;;;;4996510;28;20040;-67
2023/08/24 06:04:05;;;;;;;9.48;6.45;;;17.20;99.90;;;;;;5005930;28;20034;-66
2023/08/24 06:06:31;;;;;;;11.80;6.50;;;17.30;99.90;;;;;;5004425;28;20042;-67
2023/08/24 06:08:57;;;;;;;10.52;6.10;;;17.30;99.90;;;;;;4997559;28;20085;-67
2023/08/24 06:11:22;;;;;;;12.85;6.90;;;17.40;99.90;;;;;;5005880;28;20046;-67
2023/08/24 06:13:49;;;;;;;9.73;6.18;;;17.50;99.90;;;;;;4997389;28;20042;-64
2023/08/24 06:16:15;;;;;;;11.15;6.60;;;17.60;99.90;;;;;;5004689;28;20156;-66
2023/08/24 06:18:40;;;;;;;12.93;6.88;;;17.60;99.90;;;;;;5001731;28;20073;-64
2023/08/24 06:21:08;;;;;;;12.75;6.43;;;17.60;99.90;;;;;;5008928;28;20080;-67
2023/08/24 06:23:33;;;;;;;17.92;7.43;;;17.60;99.90;;;;;;5000379;28;20039;-67
2023/08/24 06:26:01;;;;;;;13.63;7.38;;;17.60;99.90;;;;;;5004327;28;20033;-67
2023/08/24 06:28:27;;;;;;;12.45;6.80;;;17.60;99.90;;;;;;4996104;28;20050;-66
2023/08/24 06:30:54;;;;;;;11.93;6.68;;;17.60;99.90;;;;;;4998817;28;20042;-67
2023/08/24 06:33:20;;;;;;;11.13;7.13;;;17.60;99.90;;;;;;5003184;28;20048;-67
2023/08/24 06:35:45;;;;;;;14.80;7.30;;;17.60;99.90;;;;;;4990545;28;20039;-67
2023/08/24 06:38:11;;;;;;;14.02;7.75;;;17.60;99.90;;;;;;4991584;28;20030;-67
2023/08/24 06:40:37;;;;;;;11.18;6.78;;;17.70;99.90;;;;;;4995765;28;20030;-65
2023/08/24 06:43:03;;;;;;;10.23;7.05;;;17.70;99.90;;;;;;4996376;28;20033;-67
2023/08/24 06:45:29;;;;;;;10.98;6.85;;;17.70;99.90;;;;;;4996399;28;20611;-65
2023/08/24 06:47:54;;;;;;;15.20;9.10;;;17.70;99.90;;;;;;4991550;28;20062;-67
2023/08/24 06:50:20;;;;;;;15.68;8.70;;;17.70;99.90;;;;;;5002097;28;20377;-67
2023/08/24 06:52:47;;;;;;;21.40;8.98;;;17.80;99.90;;;;;;5022122;22;20487;-62
2023/08/24 06:55:12;;;;;;;16.17;9.15;;;17.80;99.90;;;;;;5010873;28;20046;-61
2023/08/24 06:57:38;;;;;;;11.90;9.20;;;17.80;99.90;;;;;;5009297;28;20026;-61
2023/08/24 07:00:08;;;;;;;14.35;9.27;;;17.90;99.90;;;;;;4986753;28;20080;-62
2023/08/24 07:02:36;;;;;;;19.88;8.98;;;17.90;99.90;;;;;;4995580;28;20038;-62
2023/08/24 07:05:04;;;;;;;13.73;9.60;;;17.90;99.90;;;;;;4993457;28;20038;-64
2023/08/24 07:07:30;;;;;;;14.32;9.60;;;17.90;99.90;;;;;;5023839;28;20459;-62
2023/08/24 07:09:56;;;;;;;15.95;10.35;;;18.00;99.90;;;;;;4998976;28;20084;-62
2023/08/24 07:12:21;;;;;;;15.18;10.00;;;18.00;99.90;;;;;;4990579;28;20483;-66
2023/08/24 07:14:47;;;;;;;17.20;10.77;;;18.00;99.90;;;;;;5006015;28;20053;-61
2023/08/24 07:17:13;;;;;;;15.60;10.45;;;18.00;99.90;;;;;;5004336;28;20458;-62
2023/08/24 07:19:38;;;;;;;15.15;10.30;;;18.10;99.90;;;;;;4999938;28;20038;-62
2023/08/24 07:22:04;;;;;;;18.98;10.90;;;18.10;99.90;;;;;;4981359;28;20037;-64
2023/08/24 07:24:30;;;;;;;15.45;10.18;;;18.10;99.90;;;;;;4983049;28;20040;-61
2023/08/24 07:26:55;;;;;;;13.63;10.00;;;18.10;99.90;;;;;;5007816;28;20037;-66
2023/08/24 07:29:21;;;;;;;16.15;10.25;;;18.20;99.90;;;;;;4999564;28;20042;-62
2023/08/24 07:31:47;;;;;;;17.77;9.90;;;18.20;99.90;;;;;;5003343;28;20724;-62
2023/08/24 07:34:15;;;;;;;17.67;10.63;;;18.30;99.90;;;;;;4981552;28;20041;-62
2023/08/24 07:36:42;;;;;;;14.50;10.60;;;18.30;99.90;;;;;;4984848;28;20121;-61
2023/08/24 07:39:08;;;;;;;14.63;10.57;;;18.30;99.90;;;;;;5003304;28;20050;-62
2023/08/24 07:41:33;;;;;;;13.75;9.93;;;18.40;99.90;;;;;;5008392;28;20045;-62
2023/08/24 07:43:59;;;;;;;15.50;10.43;;;18.50;99.90;;;;;;5004214;28;20381;-62
2023/08/24 07:46:25;;;;;;;14.75;10.55;;;18.50;99.90;;;;;;5001205;28;20042;-63
2023/08/24 07:48:50;;;;;;;16.33;10.85;;;18.60;99.90;;;;;;5014631;28;20033;-63
2023/08/24 07:51:16;;;;;;;16.50;10.15;;;18.60;99.90;;;;;;5022965;28;20132;-62
2023/08/24 07:53:42;;;;;;;15.60;10.57;;;18.60;99.90;;;;;;5016752;28;20034;-62
2023/08/24 07:56:07;;;;;;;16.83;10.50;;;18.70;99.90;;;;;;4995709;28;20042;-62
2023/08/24 07:58:33;;;;;;;13.73;10.07;;;18.80;99.90;;;;;;5004320;28;20042;-64
2023/08/24 08:01:02;;;;;;;16.33;10.93;;;18.80;99.90;;;;;;5016030;28;20052;-61
2023/08/24 08:03:28;;;;;;;15.75;10.90;;;18.90;99.90;;;;;;5017326;28;20038;-62
2023/08/24 08:05:54;;;;;;;15.73;10.20;;;18.90;99.90;;;;;;5009381;28;20081;-63
2023/08/24 08:08:20;;;;;;;14.02;10.38;;;19.00;99.90;;;;;;5033821;28;20070;-62
2023/08/24 08:10:45;;;;;;;16.80;10.82;;;19.00;99.90;;;;;;5008357;28;20041;-62
2023/08/24 08:13:11;;;;;;;16.38;10.85;;;19.10;99.90;;;;;;5021759;28;20041;-63
2023/08/24 08:15:40;;;;;;;18.63;10.57;;;19.20;99.90;;;;;;5006660;28;20084;-61
2023/08/24 08:18:06;;;;;;;14.63;10.52;;;19.30;99.90;;;;;;5029207;28;20037;-63
2023/08/24 08:20:31;;;;;;;18.30;11.30;;;19.30;99.90;;;;;;5007662;28;20034;-63
2023/08/24 08:22:58;;;;;;;13.93;10.60;;;19.40;99.90;;;;;;5006552;28;20069;-61
2023/08/24 08:25:23;;;;;;;21.60;11.48;;;19.50;99.90;;;;;;5008761;28;20054;-62
2023/08/24 08:27:49;;;;;;;15.93;10.35;;;19.60;99.90;;;;;;5026501;28;20030;-62
2023/08/24 08:30:15;;;;;;;14.55;10.80;;;19.70;99.90;;;;;;5015903;28;20038;-61
2023/08/24 08:32:41;;;;;;;16.50;10.50;;;19.80;99.90;;;;;;5017567;28;20400;-61
2023/08/24 08:35:08;;;;;;;15.32;10.20;;;19.90;99.90;;;;;;5032735;28;20033;-62
2023/08/24 08:37:34;;;;;;;14.25;9.70;;;20.00;99.90;;;;;;5013586;28;20038;-65
2023/08/24 08:39:59;;;;;;;16.35;9.70;;;20.20;99.90;;;;;;5030388;28;20104;-62
2023/08/24 08:42:25;;;;;;;15.95;9.38;;;20.30;99.90;;;;;;5013747;28;20096;-62
2023/08/24 08:44:54;;;;;;;14.45;9.60;;;20.60;99.90;;;;;;5031748;28;20059;-62
2023/08/24 08:47:21;;;;;;;11.57;8.68;;;20.80;99.90;;;;;;5010241;28;20442;-62
2023/08/24 08:49:48;;;;;;;14.18;8.57;;;21.00;99.90;;;;;;5007306;28;20113;-62
2023/08/24 08:52:14;;;;;;;;;;;21.30;99.90;;;;;;5014566;28;20052;-62
2023/08/24 08:54:40;;;;;;;;;;;21.50;99.90;;;;;;5014135;28;20283;-62
2023/08/24 08:57:06;;;;;;;11.93;7.95;;;21.70;99.90;;;;;;5004276;28;20391;-61
2023/08/24 08:59:33;;;;;;;11.70;8.23;;;22.00;99.90;;;;;;5012800;28;20045;-62
2023/08/24 09:02:02;;;;;;;12.65;8.38;;;22.20;99.90;;;;;;5016346;28;20395;-62
2023/08/24 09:04:33;;;;;;;12.15;8.02;;;22.30;99.90;;;;;;5013606;28;20046;-62
2023/08/24 09:07:01;;;;;;;;;;;22.50;99.90;;;;;;5023464;28;20053;-62
2023/08/24 09:09:26;;;;;;;12.52;9.05;;;22.70;99.90;;;;;;5019507;28;19924;-62
2023/08/24 09:11:53;;;;;;;15.05;8.15;;;22.80;99.90;;;;;;5013994;28;20038;-62
2023/08/24 09:14:19;;;;;;;10.38;8.07;;;22.90;99.90;;;;;;5005765;28;20073;-63
2023/08/24 09:16:45;;;;;;;12.27;7.60;;;23.00;99.90;;;;;;5007206;28;20131;-63
2023/08/24 09:19:11;;;;;;;;;;;23.10;99.90;;;;;;4995309;28;20519;-63
2023/08/24 09:21:38;;;;;;;13.23;8.32;;;23.30;99.90;;;;;;5013487;28;19917;-63
2023/08/24 09:24:04;;;;;;;11.45;7.72;;;23.40;99.90;;;;;;5007003;28;20128;-63
2023/08/24 09:26:42;;;;;;;13.07;7.80;;;23.60;99.90;;;;;;5015672;28;20037;-63
2023/08/24 09:29:15;;;;;;;14.93;7.60;;;23.70;99.90;;;;;;4990862;28;20578;-63
2023/08/24 09:31:45;;;;;;;13.40;7.65;;;23.70;99.90;;;;;;5005932;28;20060;-62
2023/08/24 09:34:11;;;;;;;9.32;6.57;;;23.80;99.90;;;;;;5018232;28;20038;-62
2023/08/24 09:36:38;;;;;;;10.00;6.70;;;23.90;99.90;;;;;;5012476;28;20404;-64
2023/08/24 09:39:04;;;;;;;8.73;7.25;;;23.80;99.90;;;;;;4978963;28;20124;-65
2023/08/24 09:41:48;;;;;;;12.55;7.03;;;23.80;99.90;;;;;;5011624;28;20041;-64
2023/08/24 09:44:14;;;;;;;11.43;7.00;;;23.80;99.90;;;;;;4993851;28;20049;-62
2023/08/24 09:46:40;;;;;;;11.45;8.13;;;23.70;99.90;;;;;;5027225;28;20407;-62
2023/08/24 09:49:07;;;;;;;8.95;6.82;;;23.60;99.90;;;;;;5019308;28;20046;-65
2023/08/24 09:51:37;;;;;;;11.60;7.32;;;23.50;99.90;;;;;;5002350;28;20045;-63
2023/08/24 09:54:08;;;;;;;11.38;7.47;;;23.40;99.90;;;;;;4989426;28;20045;-63
2023/08/24 09:56:39;;;;;;;9.05;6.53;;;23.40;99.90;;;;;;5011181;28;20046;-65
2023/08/24 09:59:17;;;;;;;10.02;6.50;;;23.30;99.90;;;;;;5017140;28;20091;-65
2023/08/24 10:01:47;;;;;;;10.45;7.38;;;23.30;99.90;;;;;;5014382;28;20109;-63
2023/08/24 10:04:14;;;;;;;10.10;7.65;;;23.20;99.90;;;;;;4996773;28;20096;-65
2023/08/24 10:06:42;;;;;;;12.98;7.38;;;23.10;99.90;;;;;;5018877;28;20034;-62
2023/08/24 10:09:14;;;;;;;13.07;6.80;;;23.00;99.90;;;;;;5010089;28;20029;-63
2023/08/24 10:11:49;;;;;;;10.98;6.90;;;23.00;99.90;;;;;;5015919;28;20038;-62
2023/08/24 10:14:43;;;;;;;10.55;7.78;;;23.00;99.90;;;;;;5020607;28;20045;-66
2023/08/24 10:17:10;;;;;;;14.63;8.43;;;23.00;99.90;;;;;;5004258;28;20037;-66
2023/08/24 10:19:37;;;;;;;13.07;8.10;;;22.90;99.90;;;;;;4993707;28;20400;-62
2023/08/24 10:22:05;;;;;;;12.70;7.75;;;22.90;99.90;;;;;;5018173;28;20488;-65
2023/08/24 10:24:32;;;;;;;12.68;7.00;;;22.80;99.90;;;;;;5023663;28;20419;-62
2023/08/24 10:26:59;;;;;;;11.60;7.00;;;22.80;99.90;;;;;;5010648;28;20034;-64
2023/08/24 10:29:27;;;;;;;13.18;7.13;;;22.80;99.90;;;;;;5008136;28;20050;-63
2023/08/24 10:31:54;;;;;;;11.13;7.50;;;22.70;99.90;;;;;;5002328;28;20037;-62
2023/08/24 10:34:19;;;;;;;11.32;7.88;;;22.70;99.90;;;;;;4993082;28;20053;-65
2023/08/24 10:36:51;;;;;;;9.77;7.82;;;22.70;99.90;;;;;;4997369;28;20408;-68
2023/08/24 10:39:28;;;;;;;11.77;7.90;;;22.70;99.90;;;;;;5014284;28;20144;-66
2023/08/24 10:41:54;;;;;;;13.40;8.80;;;22.70;99.90;;;;;;5005163;28;20562;-63
2023/08/24 10:44:37;;;;;;;12.02;7.95;;;22.70;99.90;;;;;;4992961;28;20085;-63
2023/08/24 10:47:13;;;;;;;11.38;7.63;;;22.60;99.90;;;;;;5011537;28;20033;-63
2023/08/24 10:49:39;;;;;;;10.85;7.47;;;22.60;99.90;;;;;;4994067;28;20137;-62
2023/08/24 10:52:39;;;;;;;16.17;8.85;;;22.60;99.90;;;;;;5016763;28;20030;-62
2023/08/24 10:55:21;;;;;;;10.13;7.35;;;22.60;99.90;;;;;;4955140;28;20395;-63
2023/08/24 10:57:56;;;;;;;11.77;7.95;;;22.70;99.90;;;;;;5018171;28;20403;-63
2023/08/24 11:00:25;;;;;;;11.75;7.45;;;22.70;99.90;;;;;;5018096;28;20044;-65
2023/08/24 11:02:52;;;;;;;10.65;7.93;;;22.80;99.90;;;;;;4993039;28;20444;-63
2023/08/24 11:05:21;;;;;;;13.45;8.60;;;22.90;99.90;;;;;;4993990;28;20037;-63
2023/08/24 11:07:56;;;;;;;9.07;7.63;;;22.90;99.90;;;;;;5007092;28;20038;-63
2023/08/24 11:10:48;;;;;;;12.60;8.18;;;23.00;99.90;;;;;;5011144;28;20415;-63
2023/08/24 11:13:19;;;;;;;11.40;8.13;;;23.00;99.90;;;;;;4986497;28;20050;-63
2023/08/24 11:15:54;;;;;;;11.73;7.45;;;23.10;99.90;;;;;;5010246;28;20038;-64
2023/08/24 11:18:20;;;;;;;12.50;7.65;;;23.10;99.90;;;;;;4986116;28;20098;-63
2023/08/24 11:20:47;;;;;;;11.90;7.65;;;23.10;99.90;;;;;;5016184;28;20476;-63
2023/08/24 11:23:14;;;;;;;11.40;8.18;;;23.10;99.90;;;;;;4991649;28;20042;-63
2023/08/24 11:25:40;;;;;;;9.90;8.80;;;23.10;99.90;;;;;;5010548;28;20120;-63
2023/08/24 11:28:06;;;;;;;11.25;7.90;;;23.10;99.90;;;;;;5016968;28;20113;-63
2023/08/24 11:30:35;;;;;;;10.38;8.73;;;23.20;99.90;;;;;;5004787;28;20045;-64
2023/08/24 11:33:02;;;;;;;12.98;8.60;;;23.30;99.90;;;;;;5015993;28;20489;-64
2023/08/24 11:35:28;;;;;;;13.52;9.57;;;23.30;99.90;;;;;;5009982;28;20504;-64
2023/08/24 11:37:56;;;;;;;11.18;8.40;;;23.40;99.90;;;;;;4993062;28;20480;-64
2023/08/24 11:40:28;;;;;;;12.75;9.30;;;23.40;99.90;;;;;;5016333;28;20504;-64
2023/08/24 11:42:55;;;;;;;13.50;9.05;;;23.50;99.90;;;;;;5018262;28;20042;-64
2023/08/24 11:45:21;;;;;;;12.10;9.63;;;23.50;99.90;;;;;;4994331;28;20049;-64
2023/08/24 11:47:48;;;;;;;16.35;9.93;;;23.60;99.90;;;;;;4996371;28;20042;-65
2023/08/24 11:50:14;;;;;;;12.55;9.00;;;23.50;99.90;;;;;;5009088;28;20050;-64
2023/08/24 11:52:40;;;;;;;12.50;8.15;;;23.60;99.90;;;;;;4992679;28;20100;-64
2023/08/24 11:55:09;;;;;;;13.23;8.13;;;23.50;99.90;;;;;;5018436;28;20043;-64
2023/08/24 11:57:36;;;;;;;9.07;6.90;;;23.50;99.90;;;;;;5006310;28;20042;-64
2023/08/24 12:00:04;;;;;;;9.43;7.80;;;23.50;99.90;;;;;;5010265;28;20602;-64
2023/08/24 12:02:33;;;;;;;15.90;9.43;;;23.50;99.90;;;;;;5019485;28;20122;-64
2023/08/24 12:04:59;;;;;;;14.10;8.60;;;23.50;99.90;;;;;;5021314;28;20030;-64
2023/08/24 12:07:28;;;;;;;11.27;8.35;;;23.50;99.90;;;;;;5015083;28;20042;-64
2023/08/24 12:09:55;;;;;;;11.50;8.40;;;23.60;99.90;;;;;;5013951;28;20042;-64
2023/08/24 12:12:23;;;;;;;10.15;7.82;;;23.60;99.90;;;;;;5012016;28;20061;-64
2023/08/24 12:14:49;;;;;;;15.70;9.50;;;23.70;99.90;;;;;;5001149;28;20099;-65
2023/08/24 12:17:16;;;;;;;12.13;8.48;;;23.80;99.90;;;;;;5016856;28;20128;-64
2023/08/24 12:19:44;;;;;;;9.68;7.93;;;23.80;99.90;;;;;;5009260;28;20161;-64
2023/08/24 12:22:16;;;;;;;10.13;7.63;;;23.90;99.90;;;;;;5002109;28;20037;-64
2023/08/24 12:24:47;;;;;;;10.80;8.02;;;23.90;99.90;;;;;;4995988;28;20389;-64
2023/08/24 12:27:23;;;;;;;;;;;24.00;99.90;;;;;;5008330;28;20053;-64
2023/08/24 12:29:49;;;;;;;14.75;8.57;;;24.00;99.90;;;;;;5002570;28;20288;-64
2023/08/24 12:32:19;;;;;;;9.23;7.22;;;24.20;99.90;;;;;;4989654;28;20045;-64
2023/08/24 12:34:46;;;;;;;10.07;8.68;;;24.20;99.90;;;;;;5010679;28;20048;-64
2023/08/24 12:37:12;;;;;;;12.13;6.88;;;24.30;99.90;;;;;;4991313;28;20041;-64
2023/08/24 12:39:39;;;;;;;11.20;8.05;;;24.40;99.90;;;;;;4995685;28;20038;-64
2023/08/24 12:42:05;;;;;;;12.30;8.43;;;24.50;99.90;;;;;;4996772;28;20041;-64